Close Search

Base
°C
Summit
°C

WEATHER AT A GLANCE

Image Slideshow

RMR Village

Revelstoke Mountain Resort -  RMR Village Webcam

Top of The Stoke

Revelstoke Mountain Resort -  Top of The Stoke Webcam

Top of Stellar

Revelstoke Mountain Resort -  Top of Stellar Webcam

Mackenzie Outpost

Revelstoke Mountain Resort -  Mackenzie Outpost Webcam

Ripper

Revelstoke Mountain Resort -  Ripper Webcam
Base
°C
Summit
°C
Wind (Summit)
km/h

Today's Forecast

Subpeak Weather

Time Avg. Air Temp Dew Point Avg. Rel Humidity Avg. 2 Min Wind Speed Max Gust Velocity MGV Time MGV Direction Avg. Spot Wind Velocity
2026-09-05 19:35:003° C0° C80%10 km/h15 km/h19:31:00SE10 km/h
18:35:004° C4° C100%13 km/h16 km/h18:32:00N14 km/h
17:35:004° C1° C76%3 km/h6 km/h17:32:00N4 km/h
16:35:008° C3° C68%5 km/h11 km/h16:33:00SW6 km/h
15:35:007° C-0° C62%13 km/h20 km/h15:34:00SE11 km/h
14:35:005° C-1° C70%16 km/h24 km/h14:32:00SE16 km/h
13:35:006° C-1° C72%10 km/h22 km/h13:33:00S11 km/h
12:35:005° C4° C90%9 km/h13 km/h12:33:00SW6 km/h
11:35:004° C3° C96%1 km/h4 km/h11:33:00NE2 km/h
10:35:003° C3° C94%3 km/h10 km/h10:33:00E6 km/h
09:35:003° C1° C82%5 km/h15 km/h09:31:00S7 km/h
08:35:003° C1° C90%6 km/h12 km/h08:34:00E7 km/h
07:35:002° C-1° C78%12 km/h17 km/h07:33:00SE14 km/h
06:35:002° C-0° C85%12 km/h18 km/h06:32:00SE13 km/h
05:35:002° C-1° C85%16 km/h23 km/h05:32:00E17 km/h
04:35:001° C-0° C92%22 km/h25 km/h04:32:00NE22 km/h
03:35:002° C-1° C82%11 km/h14 km/h03:35:00E11 km/h
02:35:002° C-1° C84%8 km/h12 km/h02:32:00SE9 km/h
01:35:002° C-1° C82%15 km/h23 km/h01:32:00E15 km/h
00:35:001° C1° C96%12 km/h17 km/h00:35:00SE12 km/h
23:35:001° C1° C100%12 km/h16 km/h23:35:00SE10 km/h
22:35:001° C1° C100%17 km/h19 km/h22:35:00SE15 km/h
21:35:000° C1° C100%9 km/h23 km/h21:31:00SE11 km/h
20:35:001° C1° C100%12 km/h17 km/h20:31:00SE12 km/h

Time Avg. Air Temp Dew Point Avg. Rel Humidity Avg. 2 Min Wind Speed Max Gust Velocity MGV Time MGV Direction Avg. Spot Wind Velocity
2026-09-05 19:35:003° C0° C80%10 km/h15 km/h19:31:00SE10 km/h
19:30:003° C-0° C77%10 km/h15 km/h19:30:00SE8 km/h
19:25:004° C-1° C72%11 km/h15 km/h19:23:00S12 km/h
19:20:004° C-1° C73%12 km/h14 km/h19:18:00SE11 km/h
19:15:003° C-1° C74%12 km/h17 km/h19:13:00SE13 km/h
19:10:003° C-1° C78%15 km/h18 km/h19:08:00E16 km/h
19:05:003° C0° C84%13 km/h18 km/h19:05:00E11 km/h
19:00:003° C1° C88%16 km/h18 km/h18:58:00E13 km/h
18:55:003° C2° C90%1 km/h5 km/h18:55:00SE0 km/h
18:50:003° C2° C95%3 km/h7 km/h18:47:00N3 km/h
18:45:003° C3° C100%7 km/h12 km/h18:45:00E6 km/h
18:40:003° C3° C100%4 km/h11 km/h18:36:00NE4 km/h
18:35:004° C4° C100%13 km/h16 km/h18:32:00N14 km/h

We value your privacy
We use cookies to enhance your browsing experience, serve personalized ads or content, and analyze our traffic. By clicking "Allow Cookies", you consent to our use of cookies. For additional details view our Privacy Policy.
Cookie preferences

You can control how your data is used on our website. Learn more below about the cookies we use by reviewing our Privacy Policy.

Your cookie preferences have been saved.